sensor_id;sensor_type;location;lat;lon;timestamp;temperature;humidity
58554;DHT22;48119;53.218;6.576;2024-03-25T00:00:20;10.40;99.90
58554;DHT22;48119;53.218;6.576;2024-03-25T00:02:46;10.40;99.90
58554;DHT22;48119;53.218;6.576;2024-03-25T00:05:12;10.40;99.90
58554;DHT22;48119;53.218;6.576;2024-03-25T00:07:40;10.40;99.90
58554;DHT22;48119;53.218;6.576;2024-03-25T00:10:07;10.30;99.90
58554;DHT22;48119;53.218;6.576;2024-03-25T00:12:36;10.30;99.90
58554;DHT22;48119;53.218;6.576;2024-03-25T00:15:02;10.30;99.90
58554;DHT22;48119;53.218;6.576;2024-03-25T00:17:28;10.30;99.90
58554;DHT22;48119;53.218;6.576;2024-03-25T00:19:54;10.30;99.90
58554;DHT22;48119;53.218;6.576;2024-03-25T00:22:20;10.30;99.90
58554;DHT22;48119;53.218;6.576;2024-03-25T00:24:46;10.20;99.90
58554;DHT22;48119;53.218;6.576;2024-03-25T00:27:13;10.20;99.90
58554;DHT22;48119;53.218;6.576;2024-03-25T00:29:39;10.20;99.90
58554;DHT22;48119;53.218;6.576;2024-03-25T00:32:05;10.20;99.90
58554;DHT22;48119;53.218;6.576;2024-03-25T00:34:32;10.20;99.90
58554;DHT22;48119;53.218;6.576;2024-03-25T00:37:01;10.20;99.90
58554;DHT22;48119;53.218;6.576;2024-03-25T00:39:27;10.20;99.90
58554;DHT22;48119;53.218;6.576;2024-03-25T00:41:54;10.20;99.90
58554;DHT22;48119;53.218;6.576;2024-03-25T00:44:20;10.20;99.90
58554;DHT22;48119;53.218;6.576;2024-03-25T00:46:46;10.30;99.90
58554;DHT22;48119;53.218;6.576;2024-03-25T00:49:12;10.20;99.90
58554;DHT22;48119;53.218;6.576;2024-03-25T00:51:38;10.30;99.90
58554;DHT22;48119;53.218;6.576;2024-03-25T00:54:04;10.20;99.90
58554;DHT22;48119;53.218;6.576;2024-03-25T00:56:30;10.20;99.90
58554;DHT22;48119;53.218;6.576;2024-03-25T00:58:57;10.30;99.90
58554;DHT22;48119;53.218;6.576;2024-03-25T01:01:24;10.30;99.90
58554;DHT22;48119;53.218;6.576;2024-03-25T01:03:49;10.30;99.90
58554;DHT22;48119;53.218;6.576;2024-03-25T01:06:15;10.30;99.90
58554;DHT22;48119;53.218;6.576;2024-03-25T01:08:41;10.30;99.90
58554;DHT22;48119;53.218;6.576;2024-03-25T01:11:07;10.40;99.90
58554;DHT22;48119;53.218;6.576;2024-03-25T01:13:33;10.30;99.90
58554;DHT22;48119;53.218;6.576;2024-03-25T01:15:58;10.30;99.90
58554;DHT22;48119;53.218;6.576;2024-03-25T01:18:24;10.30;99.90
58554;DHT22;48119;53.218;6.576;2024-03-25T01:20:50;10.30;99.90
58554;DHT22;48119;53.218;6.576;2024-03-25T01:23:16;10.30;99.90
58554;DHT22;48119;53.218;6.576;2024-03-25T01:25:42;10.30;99.90
58554;DHT22;48119;53.218;6.576;2024-03-25T01:28:07;10.30;99.90
58554;DHT22;48119;53.218;6.576;2024-03-25T01:30:33;10.30;99.90
58554;DHT22;48119;53.218;6.576;2024-03-25T01:33:01;10.30;99.90
58554;DHT22;48119;53.218;6.576;2024-03-25T01:35:27;10.30;99.90
58554;DHT22;48119;53.218;6.576;2024-03-25T01:37:53;10.40;99.90
58554;DHT22;48119;53.218;6.576;2024-03-25T01:40:19;10.40;99.90
58554;DHT22;48119;53.218;6.576;2024-03-25T01:42:58;10.40;99.90
58554;DHT22;48119;53.218;6.576;2024-03-25T01:45:32;10.30;99.90
58554;DHT22;48119;53.218;6.576;2024-03-25T01:48:01;10.40;99.90
58554;DHT22;48119;53.218;6.576;2024-03-25T01:50:29;10.30;99.90
58554;DHT22;48119;53.218;6.576;2024-03-25T01:52:55;10.30;99.90
58554;DHT22;48119;53.218;6.576;2024-03-25T01:55:22;10.30;99.90
58554;DHT22;48119;53.218;6.576;2024-03-25T01:57:50;10.30;99.90
58554;DHT22;48119;53.218;6.576;2024-03-25T02:00:17;10.30;99.90
58554;DHT22;48119;53.218;6.576;2024-03-25T02:02:43;10.30;99.90
58554;DHT22;48119;53.218;6.576;2024-03-25T02:05:19;10.30;99.90
58554;DHT22;48119;53.218;6.576;2024-03-25T02:07:46;10.40;99.90
58554;DHT22;48119;53.218;6.576;2024-03-25T02:10:12;10.40;99.90
58554;DHT22;48119;53.218;6.576;2024-03-25T02:12:42;10.40;99.90
58554;DHT22;48119;53.218;6.576;2024-03-25T02:15:09;10.30;99.90
58554;DHT22;48119;53.218;6.576;2024-03-25T02:17:35;10.40;99.90
58554;DHT22;48119;53.218;6.576;2024-03-25T02:20:05;10.40;99.90
58554;DHT22;48119;53.218;6.576;2024-03-25T02:22:33;10.30;99.90
58554;DHT22;48119;53.218;6.576;2024-03-25T02:24:59;10.30;99.90
58554;DHT22;48119;53.218;6.576;2024-03-25T02:27:26;10.30;99.90
58554;DHT22;48119;53.218;6.576;2024-03-25T02:30:04;10.30;99.90
58554;DHT22;48119;53.218;6.576;2024-03-25T02:32:32;10.30;99.90
58554;DHT22;48119;53.218;6.576;2024-03-25T02:34:59;10.30;99.90
58554;DHT22;48119;53.218;6.576;2024-03-25T02:37:25;10.30;99.90
58554;DHT22;48119;53.218;6.576;2024-03-25T02:39:54;10.30;99.90
58554;DHT22;48119;53.218;6.576;2024-03-25T02:42:21;10.20;99.90
58554;DHT22;48119;53.218;6.576;2024-03-25T02:44:47;10.20;99.90
58554;DHT22;48119;53.218;6.576;2024-03-25T02:47:13;10.30;99.90
58554;DHT22;48119;53.218;6.576;2024-03-25T02:49:39;10.30;99.90
58554;DHT22;48119;53.218;6.576;2024-03-25T02:52:05;10.30;99.90
58554;DHT22;48119;53.218;6.576;2024-03-25T02:54:31;10.30;99.90
58554;DHT22;48119;53.218;6.576;2024-03-25T02:56:57;10.30;99.90
58554;DHT22;48119;53.218;6.576;2024-03-25T02:59:23;10.30;99.90
58554;DHT22;48119;53.218;6.576;2024-03-25T03:01:48;10.30;99.90
58554;DHT22;48119;53.218;6.576;2024-03-25T03:04:14;10.30;99.90
58554;DHT22;48119;53.218;6.576;2024-03-25T03:06:40;10.30;99.90
58554;DHT22;48119;53.218;6.576;2024-03-25T03:09:06;10.20;99.90
58554;DHT22;48119;53.218;6.576;2024-03-25T03:11:32;10.20;99.90
58554;DHT22;48119;53.218;6.576;2024-03-25T03:13:58;10.20;99.90
58554;DHT22;48119;53.218;6.576;2024-03-25T03:16:24;10.30;99.90
58554;DHT22;48119;53.218;6.576;2024-03-25T03:18:50;10.20;99.90
58554;DHT22;48119;53.218;6.576;2024-03-25T03:21:15;10.20;99.90
58554;DHT22;48119;53.218;6.576;2024-03-25T03:23:41;10.30;99.90
58554;DHT22;48119;53.218;6.576;2024-03-25T03:26:07;10.30;99.90
58554;DHT22;48119;53.218;6.576;2024-03-25T03:28:32;10.30;99.90
58554;DHT22;48119;53.218;6.576;2024-03-25T03:30:58;10.30;99.90
58554;DHT22;48119;53.218;6.576;2024-03-25T03:33:24;10.20;99.90
58554;DHT22;48119;53.218;6.576;2024-03-25T03:35:50;10.20;99.90
58554;DHT22;48119;53.218;6.576;2024-03-25T03:38:15;10.20;99.90
58554;DHT22;48119;53.218;6.576;2024-03-25T03:40:41;10.20;99.90
58554;DHT22;48119;53.218;6.576;2024-03-25T03:43:07;10.30;99.90
58554;DHT22;48119;53.218;6.576;2024-03-25T03:45:33;10.20;99.90
58554;DHT22;48119;53.218;6.576;2024-03-25T03:48:02;10.20;99.90
58554;DHT22;48119;53.218;6.576;2024-03-25T03:50:28;10.20;99.90
58554;DHT22;48119;53.218;6.576;2024-03-25T03:52:54;10.20;99.90
58554;DHT22;48119;53.218;6.576;2024-03-25T03:55:19;10.20;99.90
58554;DHT22;48119;53.218;6.576;2024-03-25T03:57:45;10.20;99.90
58554;DHT22;48119;53.218;6.576;2024-03-25T04:00:11;10.20;99.90
58554;DHT22;48119;53.218;6.576;2024-03-25T04:02:39;10.20;99.90
58554;DHT22;48119;53.218;6.576;2024-03-25T04:05:05;10.10;99.90
58554;DHT22;48119;53.218;6.576;2024-03-25T04:07:32;10.10;99.90
58554;DHT22;48119;53.218;6.576;2024-03-25T04:09:58;10.10;99.90
58554;DHT22;48119;53.218;6.576;2024-03-25T04:12:25;10.10;99.90
58554;DHT22;48119;53.218;6.576;2024-03-25T04:14:51;10.10;99.90
58554;DHT22;48119;53.218;6.576;2024-03-25T04:17:21;10.10;99.90
58554;DHT22;48119;53.218;6.576;2024-03-25T04:19:48;10.10;99.90
58554;DHT22;48119;53.218;6.576;2024-03-25T04:22:14;10.10;99.90
58554;DHT22;48119;53.218;6.576;2024-03-25T04:24:40;10.10;99.90
58554;DHT22;48119;53.218;6.576;2024-03-25T04:27:06;10.10;99.90
58554;DHT22;48119;53.218;6.576;2024-03-25T04:29:32;10.10;99.90
58554;DHT22;48119;53.218;6.576;2024-03-25T04:31:58;10.20;99.90
58554;DHT22;48119;53.218;6.576;2024-03-25T04:34:23;10.20;99.90
58554;DHT22;48119;53.218;6.576;2024-03-25T04:36:49;10.10;99.90
58554;DHT22;48119;53.218;6.576;2024-03-25T04:39:15;10.20;99.90
58554;DHT22;48119;53.218;6.576;2024-03-25T04:41:41;10.10;99.90
58554;DHT22;48119;53.218;6.576;2024-03-25T04:44:06;10.10;99.90
58554;DHT22;48119;53.218;6.576;2024-03-25T04:46:32;10.10;99.90
58554;DHT22;48119;53.218;6.576;2024-03-25T04:48:58;10.10;99.90
58554;DHT22;48119;53.218;6.576;2024-03-25T04:51:24;10.10;99.90
58554;DHT22;48119;53.218;6.576;2024-03-25T04:53:52;10.20;99.90
58554;DHT22;48119;53.218;6.576;2024-03-25T04:56:18;10.10;99.90
58554;DHT22;48119;53.218;6.576;2024-03-25T04:58:44;10.10;99.90
58554;DHT22;48119;53.218;6.576;2024-03-25T05:01:10;10.10;99.90
58554;DHT22;48119;53.218;6.576;2024-03-25T05:03:36;10.10;99.90
58554;DHT22;48119;53.218;6.576;2024-03-25T05:06:01;10.10;99.90
58554;DHT22;48119;53.218;6.576;2024-03-25T05:08:28;10.10;99.90
58554;DHT22;48119;53.218;6.576;2024-03-25T05:10:53;10.20;99.90
58554;DHT22;48119;53.218;6.576;2024-03-25T05:13:19;10.10;99.90
58554;DHT22;48119;53.218;6.576;2024-03-25T05:15:51;10.10;99.90
58554;DHT22;48119;53.218;6.576;2024-03-25T05:18:18;10.10;99.90
58554;DHT22;48119;53.218;6.576;2024-03-25T05:20:44;10.10;99.90
58554;DHT22;48119;53.218;6.576;2024-03-25T05:23:10;10.10;99.90
58554;DHT22;48119;53.218;6.576;2024-03-25T05:25:36;10.10;99.90
58554;DHT22;48119;53.218;6.576;2024-03-25T05:28:02;10.10;99.90
58554;DHT22;48119;53.218;6.576;2024-03-25T05:30:28;10.10;99.90
58554;DHT22;48119;53.218;6.576;2024-03-25T05:32:53;10.10;99.90
58554;DHT22;48119;53.218;6.576;2024-03-25T05:35:19;10.10;99.90
58554;DHT22;48119;53.218;6.576;2024-03-25T05:37:47;10.10;99.90
58554;DHT22;48119;53.218;6.576;2024-03-25T05:40:15;10.00;99.90
58554;DHT22;48119;53.218;6.576;2024-03-25T05:42:44;10.10;99.90
58554;DHT22;48119;53.218;6.576;2024-03-25T05:45:10;10.10;99.90
58554;DHT22;48119;53.218;6.576;2024-03-25T05:47:36;10.00;99.90
58554;DHT22;48119;53.218;6.576;2024-03-25T05:50:02;10.00;99.90
58554;DHT22;48119;53.218;6.576;2024-03-25T05:52:31;10.00;99.90
58554;DHT22;48119;53.218;6.576;2024-03-25T05:54:57;10.00;99.90
58554;DHT22;48119;53.218;6.576;2024-03-25T05:57:23;10.00;99.90
58554;DHT22;48119;53.218;6.576;2024-03-25T05:59:49;10.00;99.90
58554;DHT22;48119;53.218;6.576;2024-03-25T06:02:15;10.10;99.90
58554;DHT22;48119;53.218;6.576;2024-03-25T06:04:40;10.00;99.90
58554;DHT22;48119;53.218;6.576;2024-03-25T06:07:06;10.00;99.90
58554;DHT22;48119;53.218;6.576;2024-03-25T06:09:32;10.00;99.90
58554;DHT22;48119;53.218;6.576;2024-03-25T06:11:58;10.00;99.90
58554;DHT22;48119;53.218;6.576;2024-03-25T06:14:24;10.00;99.90
58554;DHT22;48119;53.218;6.576;2024-03-25T06:16:49;10.00;99.90
58554;DHT22;48119;53.218;6.576;2024-03-25T06:19:15;10.00;99.90
58554;DHT22;48119;53.218;6.576;2024-03-25T06:21:41;10.00;99.90
58554;DHT22;48119;53.218;6.576;2024-03-25T06:24:08;10.00;99.90
58554;DHT22;48119;53.218;6.576;2024-03-25T06:26:34;10.00;99.90
58554;DHT22;48119;53.218;6.576;2024-03-25T06:29:00;10.00;99.90
58554;DHT22;48119;53.218;6.576;2024-03-25T06:31:26;10.00;99.90
58554;DHT22;48119;53.218;6.576;2024-03-25T06:34:10;10.00;99.90
58554;DHT22;48119;53.218;6.576;2024-03-25T06:36:47;10.00;99.90
58554;DHT22;48119;53.218;6.576;2024-03-25T06:39:14;10.00;99.90
58554;DHT22;48119;53.218;6.576;2024-03-25T06:41:40;10.00;99.90
58554;DHT22;48119;53.218;6.576;2024-03-25T06:44:06;10.00;99.90
58554;DHT22;48119;53.218;6.576;2024-03-25T06:46:32;10.00;99.90
58554;DHT22;48119;53.218;6.576;2024-03-25T06:48:58;10.00;99.90
58554;DHT22;48119;53.218;6.576;2024-03-25T06:51:24;10.00;99.90
58554;DHT22;48119;53.218;6.576;2024-03-25T06:53:50;10.00;99.90
58554;DHT22;48119;53.218;6.576;2024-03-25T06:56:16;10.00;99.90
58554;DHT22;48119;53.218;6.576;2024-03-25T06:58:42;10.00;99.90
58554;DHT22;48119;53.218;6.576;2024-03-25T07:01:10;10.10;99.90
58554;DHT22;48119;53.218;6.576;2024-03-25T07:03:39;10.10;99.90
58554;DHT22;48119;53.218;6.576;2024-03-25T07:06:08;10.10;99.90
58554;DHT22;48119;53.218;6.576;2024-03-25T07:08:33;10.10;99.90
58554;DHT22;48119;53.218;6.576;2024-03-25T07:10:59;10.10;99.90
58554;DHT22;48119;53.218;6.576;2024-03-25T07:13:25;10.10;99.90
58554;DHT22;48119;53.218;6.576;2024-03-25T07:15:51;10.10;99.90
58554;DHT22;48119;53.218;6.576;2024-03-25T07:18:17;10.10;99.90
58554;DHT22;48119;53.218;6.576;2024-03-25T07:20:43;10.10;99.90
58554;DHT22;48119;53.218;6.576;2024-03-25T07:23:09;10.20;99.90
58554;DHT22;48119;53.218;6.576;2024-03-25T07:25:38;10.20;99.90
58554;DHT22;48119;53.218;6.576;2024-03-25T07:28:06;10.20;99.90
58554;DHT22;48119;53.218;6.576;2024-03-25T07:30:31;10.20;99.90
58554;DHT22;48119;53.218;6.576;2024-03-25T07:32:58;10.20;99.90
58554;DHT22;48119;53.218;6.576;2024-03-25T07:35:45;10.20;99.90
58554;DHT22;48119;53.218;6.576;2024-03-25T07:41:18;10.20;99.90
58554;DHT22;48119;53.218;6.576;2024-03-25T07:43:43;10.20;99.90
58554;DHT22;48119;53.218;6.576;2024-03-25T07:46:10;10.30;99.90
58554;DHT22;48119;53.218;6.576;2024-03-25T07:48:38;10.30;99.90
58554;DHT22;48119;53.218;6.576;2024-03-25T07:51:04;10.30;99.90
58554;DHT22;48119;53.218;6.576;2024-03-25T07:53:29;10.20;99.90
58554;DHT22;48119;53.218;6.576;2024-03-25T07:56:18;10.30;99.90
58554;DHT22;48119;53.218;6.576;2024-03-25T07:59:04;10.30;99.90
58554;DHT22;48119;53.218;6.576;2024-03-25T08:01:30;10.30;99.90
58554;DHT22;48119;53.218;6.576;2024-03-25T08:03:56;10.30;99.90
58554;DHT22;48119;53.218;6.576;2024-03-25T08:06:22;10.40;99.90
58554;DHT22;48119;53.218;6.576;2024-03-25T08:08:57;10.30;99.90
58554;DHT22;48119;53.218;6.576;2024-03-25T08:11:32;10.40;99.90
58554;DHT22;48119;53.218;6.576;2024-03-25T08:13:57;10.40;99.90
58554;DHT22;48119;53.218;6.576;2024-03-25T08:16:23;10.40;99.90
58554;DHT22;48119;53.218;6.576;2024-03-25T08:18:49;10.50;99.90
58554;DHT22;48119;53.218;6.576;2024-03-25T08:21:19;10.50;99.90
58554;DHT22;48119;53.218;6.576;2024-03-25T08:23:46;10.50;99.90
58554;DHT22;48119;53.218;6.576;2024-03-25T08:26:14;10.50;99.90
58554;DHT22;48119;53.218;6.576;2024-03-25T08:28:40;10.60;99.90
58554;DHT22;48119;53.218;6.576;2024-03-25T08:31:06;10.60;99.90
58554;DHT22;48119;53.218;6.576;2024-03-25T08:33:33;10.70;99.90
58554;DHT22;48119;53.218;6.576;2024-03-25T08:35:58;10.60;99.90
58554;DHT22;48119;53.218;6.576;2024-03-25T08:38:40;10.70;99.90
58554;DHT22;48119;53.218;6.576;2024-03-25T08:41:06;10.70;99.90
58554;DHT22;48119;53.218;6.576;2024-03-25T08:43:39;10.70;99.90
58554;DHT22;48119;53.218;6.576;2024-03-25T08:46:04;10.80;99.90
58554;DHT22;48119;53.218;6.576;2024-03-25T08:48:30;10.80;99.90
58554;DHT22;48119;53.218;6.576;2024-03-25T08:50:56;10.80;99.90
58554;DHT22;48119;53.218;6.576;2024-03-25T08:53:22;10.90;99.90
58554;DHT22;48119;53.218;6.576;2024-03-25T08:55:48;10.90;99.90
58554;DHT22;48119;53.218;6.576;2024-03-25T08:58:14;10.90;99.90
58554;DHT22;48119;53.218;6.576;2024-03-25T09:00:49;10.90;99.90
58554;DHT22;48119;53.218;6.576;2024-03-25T09:03:18;10.90;99.90
58554;DHT22;48119;53.218;6.576;2024-03-25T09:05:44;10.90;99.90
58554;DHT22;48119;53.218;6.576;2024-03-25T09:08:09;10.90;99.90
58554;DHT22;48119;53.218;6.576;2024-03-25T09:10:37;10.90;99.90
58554;DHT22;48119;53.218;6.576;2024-03-25T09:13:21;10.90;99.90
58554;DHT22;48119;53.218;6.576;2024-03-25T09:15:49;10.90;99.90
58554;DHT22;48119;53.218;6.576;2024-03-25T09:18:15;10.90;99.90
58554;DHT22;48119;53.218;6.576;2024-03-25T09:20:41;10.90;99.90
58554;DHT22;48119;53.218;6.576;2024-03-25T09:23:07;11.00;99.90
58554;DHT22;48119;53.218;6.576;2024-03-25T09:25:33;11.00;99.90
58554;DHT22;48119;53.218;6.576;2024-03-25T09:27:59;11.00;99.90
58554;DHT22;48119;53.218;6.576;2024-03-25T09:30:26;11.00;99.90
58554;DHT22;48119;53.218;6.576;2024-03-25T09:32:52;11.00;99.90
58554;DHT22;48119;53.218;6.576;2024-03-25T09:35:18;11.10;99.90
58554;DHT22;48119;53.218;6.576;2024-03-25T09:37:44;11.10;99.90
58554;DHT22;48119;53.218;6.576;2024-03-25T09:40:13;11.10;99.90
58554;DHT22;48119;53.218;6.576;2024-03-25T09:42:49;11.20;99.90
58554;DHT22;48119;53.218;6.576;2024-03-25T09:45:18;11.20;99.90
58554;DHT22;48119;53.218;6.576;2024-03-25T09:47:47;11.20;99.90
58554;DHT22;48119;53.218;6.576;2024-03-25T09:50:14;11.20;99.90
58554;DHT22;48119;53.218;6.576;2024-03-25T09:52:47;11.30;99.90
58554;DHT22;48119;53.218;6.576;2024-03-25T09:55:14;11.30;99.90
58554;DHT22;48119;53.218;6.576;2024-03-25T09:57:40;11.30;99.90
58554;DHT22;48119;53.218;6.576;2024-03-25T10:00:08;11.30;99.90
58554;DHT22;48119;53.218;6.576;2024-03-25T10:02:37;11.40;99.90
58554;DHT22;48119;53.218;6.576;2024-03-25T10:05:07;11.40;99.90
58554;DHT22;48119;53.218;6.576;2024-03-25T10:07:34;11.40;99.90
58554;DHT22;48119;53.218;6.576;2024-03-25T10:10:09;11.50;99.90
58554;DHT22;48119;53.218;6.576;2024-03-25T10:12:38;11.50;99.90
58554;DHT22;48119;53.218;6.576;2024-03-25T10:15:04;11.50;99.90
58554;DHT22;48119;53.218;6.576;2024-03-25T10:17:34;11.50;99.90
58554;DHT22;48119;53.218;6.576;2024-03-25T10:20:00;11.50;99.90
58554;DHT22;48119;53.218;6.576;2024-03-25T10:22:26;11.50;99.90
58554;DHT22;48119;53.218;6.576;2024-03-25T10:24:51;11.50;99.90
58554;DHT22;48119;53.218;6.576;2024-03-25T10:27:19;11.50;99.90
58554;DHT22;48119;53.218;6.576;2024-03-25T10:29:46;11.50;99.90
58554;DHT22;48119;53.218;6.576;2024-03-25T10:32:13;11.50;99.90
58554;DHT22;48119;53.218;6.576;2024-03-25T10:34:39;11.50;99.90
58554;DHT22;48119;53.218;6.576;2024-03-25T10:37:14;11.50;99.90
58554;DHT22;48119;53.218;6.576;2024-03-25T10:39:49;11.50;99.90
58554;DHT22;48119;53.218;6.576;2024-03-25T10:42:19;11.40;99.90
58554;DHT22;48119;53.218;6.576;2024-03-25T10:44:45;11.40;99.90
58554;DHT22;48119;53.218;6.576;2024-03-25T10:47:19;11.30;99.90
58554;DHT22;48119;53.218;6.576;2024-03-25T10:52:11;11.30;99.90
58554;DHT22;48119;53.218;6.576;2024-03-25T10:54:39;11.20;99.90
58554;DHT22;48119;53.218;6.576;2024-03-25T10:57:14;11.20;99.90
58554;DHT22;48119;53.218;6.576;2024-03-25T10:59:45;11.20;99.90
58554;DHT22;48119;53.218;6.576;2024-03-25T11:02:12;11.20;99.90
58554;DHT22;48119;53.218;6.576;2024-03-25T11:04:39;11.20;99.90
58554;DHT22;48119;53.218;6.576;2024-03-25T11:07:15;11.30;99.90
58554;DHT22;48119;53.218;6.576;2024-03-25T11:09:42;11.40;99.90
58554;DHT22;48119;53.218;6.576;2024-03-25T11:12:12;11.30;99.90
58554;DHT22;48119;53.218;6.576;2024-03-25T11:14:39;11.40;99.90
58554;DHT22;48119;53.218;6.576;2024-03-25T11:17:14;11.50;99.90
58554;DHT22;48119;53.218;6.576;2024-03-25T11:19:41;11.50;99.90
58554;DHT22;48119;53.218;6.576;2024-03-25T11:22:11;11.60;99.90
58554;DHT22;48119;53.218;6.576;2024-03-25T11:24:37;11.60;99.90
58554;DHT22;48119;53.218;6.576;2024-03-25T11:27:07;11.70;99.90
58554;DHT22;48119;53.218;6.576;2024-03-25T11:29:33;11.80;99.90
58554;DHT22;48119;53.218;6.576;2024-03-25T11:32:04;11.80;99.90
58554;DHT22;48119;53.218;6.576;2024-03-25T11:34:30;11.90;99.90
58554;DHT22;48119;53.218;6.576;2024-03-25T11:36:56;12.00;99.90
58554;DHT22;48119;53.218;6.576;2024-03-25T11:39:26;12.00;99.90
58554;DHT22;48119;53.218;6.576;2024-03-25T11:41:54;12.10;99.90
58554;DHT22;48119;53.218;6.576;2024-03-25T11:44:19;12.10;99.90
58554;DHT22;48119;53.218;6.576;2024-03-25T11:46:46;12.20;99.90
58554;DHT22;48119;53.218;6.576;2024-03-25T11:49:13;12.20;99.90
58554;DHT22;48119;53.218;6.576;2024-03-25T11:51:40;12.20;99.90
58554;DHT22;48119;53.218;6.576;2024-03-25T11:54:13;12.20;99.90
58554;DHT22;48119;53.218;6.576;2024-03-25T11:56:39;12.20;99.90
58554;DHT22;48119;53.218;6.576;2024-03-25T11:59:05;12.20;99.90
58554;DHT22;48119;53.218;6.576;2024-03-25T12:01:32;12.20;99.90
58554;DHT22;48119;53.218;6.576;2024-03-25T12:04:09;12.20;99.90
58554;DHT22;48119;53.218;6.576;2024-03-25T12:06:35;12.20;99.90
58554;DHT22;48119;53.218;6.576;2024-03-25T12:09:01;12.20;99.90
58554;DHT22;48119;53.218;6.576;2024-03-25T12:11:45;12.10;99.90
58554;DHT22;48119;53.218;6.576;2024-03-25T12:14:11;12.10;99.90
58554;DHT22;48119;53.218;6.576;2024-03-25T12:16:38;12.10;99.90
58554;DHT22;48119;53.218;6.576;2024-03-25T12:19:03;12.10;99.90
58554;DHT22;48119;53.218;6.576;2024-03-25T12:21:31;12.10;99.90
58554;DHT22;48119;53.218;6.576;2024-03-25T12:23:57;12.00;99.90
58554;DHT22;48119;53.218;6.576;2024-03-25T12:26:24;12.00;99.90
58554;DHT22;48119;53.218;6.576;2024-03-25T12:28:51;12.00;99.90
58554;DHT22;48119;53.218;6.576;2024-03-25T12:31:17;12.00;99.90
58554;DHT22;48119;53.218;6.576;2024-03-25T12:33:46;12.00;99.90
58554;DHT22;48119;53.218;6.576;2024-03-25T12:36:12;12.00;99.90
58554;DHT22;48119;53.218;6.576;2024-03-25T12:38:42;12.00;99.90
58554;DHT22;48119;53.218;6.576;2024-03-25T12:41:11;12.00;99.90
58554;DHT22;48119;53.218;6.576;2024-03-25T12:43:42;11.90;99.90
58554;DHT22;48119;53.218;6.576;2024-03-25T12:46:08;11.90;99.90
58554;DHT22;48119;53.218;6.576;2024-03-25T12:48:39;11.90;99.90
58554;DHT22;48119;53.218;6.576;2024-03-25T12:51:15;11.90;99.90
58554;DHT22;48119;53.218;6.576;2024-03-25T12:53:41;12.00;99.90
58554;DHT22;48119;53.218;6.576;2024-03-25T12:56:07;12.00;99.90
58554;DHT22;48119;53.218;6.576;2024-03-25T12:58:34;12.00;99.90
58554;DHT22;48119;53.218;6.576;2024-03-25T13:00:59;12.00;99.90
58554;DHT22;48119;53.218;6.576;2024-03-25T13:03:25;12.00;99.90
58554;DHT22;48119;53.218;6.576;2024-03-25T13:05:51;12.10;99.90
58554;DHT22;48119;53.218;6.576;2024-03-25T13:08:17;12.10;99.90
58554;DHT22;48119;53.218;6.576;2024-03-25T13:10:44;12.10;99.90
58554;DHT22;48119;53.218;6.576;2024-03-25T13:13:10;12.10;99.90
58554;DHT22;48119;53.218;6.576;2024-03-25T13:15:36;12.20;99.90
58554;DHT22;48119;53.218;6.576;2024-03-25T13:18:02;12.20;99.90
58554;DHT22;48119;53.218;6.576;2024-03-25T13:20:28;12.20;99.90
58554;DHT22;48119;53.218;6.576;2024-03-25T13:22:54;12.20;99.90
58554;DHT22;48119;53.218;6.576;2024-03-25T13:25:25;12.20;99.90
58554;DHT22;48119;53.218;6.576;2024-03-25T13:27:50;12.20;99.90
58554;DHT22;48119;53.218;6.576;2024-03-25T13:30:17;12.20;99.90
58554;DHT22;48119;53.218;6.576;2024-03-25T13:32:42;12.20;99.90
58554;DHT22;48119;53.218;6.576;2024-03-25T13:35:08;12.30;99.90
58554;DHT22;48119;53.218;6.576;2024-03-25T13:37:34;12.30;99.90
58554;DHT22;48119;53.218;6.576;2024-03-25T13:39:59;12.30;99.90
58554;DHT22;48119;53.218;6.576;2024-03-25T13:42:25;12.30;99.90
58554;DHT22;48119;53.218;6.576;2024-03-25T13:44:51;12.30;99.90
58554;DHT22;48119;53.218;6.576;2024-03-25T13:47:17;12.30;99.90
58554;DHT22;48119;53.218;6.576;2024-03-25T13:49:43;12.30;99.90
58554;DHT22;48119;53.218;6.576;2024-03-25T13:52:08;12.30;99.90
58554;DHT22;48119;53.218;6.576;2024-03-25T13:54:34;12.30;99.90
58554;DHT22;48119;53.218;6.576;2024-03-25T13:57:00;12.30;99.90
58554;DHT22;48119;53.218;6.576;2024-03-25T13:59:25;12.30;99.90
58554;DHT22;48119;53.218;6.576;2024-03-25T14:01:51;12.30;99.90
58554;DHT22;48119;53.218;6.576;2024-03-25T14:04:19;12.30;99.90
58554;DHT22;48119;53.218;6.576;2024-03-25T14:06:45;12.30;99.90
58554;DHT22;48119;53.218;6.576;2024-03-25T14:09:26;12.40;99.90
58554;DHT22;48119;53.218;6.576;2024-03-25T14:11:52;12.30;99.90
58554;DHT22;48119;53.218;6.576;2024-03-25T14:14:18;12.30;99.90
58554;DHT22;48119;53.218;6.576;2024-03-25T14:16:44;12.40;99.90
58554;DHT22;48119;53.218;6.576;2024-03-25T14:19:09;12.40;99.90
58554;DHT22;48119;53.218;6.576;2024-03-25T14:21:35;12.40;99.90
58554;DHT22;48119;53.218;6.576;2024-03-25T14:24:01;12.40;99.90
58554;DHT22;48119;53.218;6.576;2024-03-25T14:26:27;12.40;99.90
58554;DHT22;48119;53.218;6.576;2024-03-25T14:28:53;12.40;99.90
58554;DHT22;48119;53.218;6.576;2024-03-25T14:31:18;12.40;99.90
58554;DHT22;48119;53.218;6.576;2024-03-25T14:33:44;12.40;99.90
58554;DHT22;48119;53.218;6.576;2024-03-25T14:36:10;12.40;99.90
58554;DHT22;48119;53.218;6.576;2024-03-25T14:38:35;12.40;99.90
58554;DHT22;48119;53.218;6.576;2024-03-25T14:41:03;12.50;99.90
58554;DHT22;48119;53.218;6.576;2024-03-25T14:43:29;12.50;99.90
58554;DHT22;48119;53.218;6.576;2024-03-25T14:45:55;12.50;99.90
58554;DHT22;48119;53.218;6.576;2024-03-25T14:48:20;12.50;99.90
58554;DHT22;48119;53.218;6.576;2024-03-25T14:50:46;12.50;99.90
58554;DHT22;48119;53.218;6.576;2024-03-25T14:53:12;12.50;99.90
58554;DHT22;48119;53.218;6.576;2024-03-25T14:55:37;12.50;99.90
58554;DHT22;48119;53.218;6.576;2024-03-25T14:58:06;12.50;99.90
58554;DHT22;48119;53.218;6.576;2024-03-25T15:00:32;12.50;99.90
58554;DHT22;48119;53.218;6.576;2024-03-25T15:02:58;12.50;99.90
58554;DHT22;48119;53.218;6.576;2024-03-25T15:05:24;12.50;99.90
58554;DHT22;48119;53.218;6.576;2024-03-25T15:07:50;12.50;99.90
58554;DHT22;48119;53.218;6.576;2024-03-25T15:10:15;12.50;99.90
58554;DHT22;48119;53.218;6.576;2024-03-25T15:12:41;12.40;99.90
58554;DHT22;48119;53.218;6.576;2024-03-25T15:15:07;12.50;99.90
58554;DHT22;48119;53.218;6.576;2024-03-25T15:17:35;12.50;99.90
58554;DHT22;48119;53.218;6.576;2024-03-25T15:20:21;12.40;99.90
58554;DHT22;48119;53.218;6.576;2024-03-25T15:22:47;12.50;99.90
58554;DHT22;48119;53.218;6.576;2024-03-25T15:25:13;12.50;99.90
58554;DHT22;48119;53.218;6.576;2024-03-25T15:27:40;12.50;99.90
58554;DHT22;48119;53.218;6.576;2024-03-25T15:30:06;12.50;99.90
58554;DHT22;48119;53.218;6.576;2024-03-25T15:32:32;12.50;99.90
58554;DHT22;48119;53.218;6.576;2024-03-25T15:34:58;12.50;99.90